Johann Essberger — CQKG — position and weather

sailwx.info

Track history (hours):
 
Tides and Currents Weather Stations Pressure Air Temp Water Temp Dewpoint Dewpoint Depression Visibility Wind Speed Wind Dir Waves Ship Positions

Johann Essberger

Last reported at 2015-Mar-28 17:33 UTC. Time now 2015-Mar-29 04:28 UTC.
Position N 51°09' E 003°47'.

Length 100 m; draft 6.6 m.

Type: Ship (hazmat cat C). MMSI: 255804460.

Date/timePositionNaut miles runAvg speedWind from/ knotsBaromVisibWave heightAir tempDewpointWater temp
2015-Mar-28 17:33N 51°09' E 003°47'5 4.7
2015-Mar-28 16:33N 51°13' E 003°48'6 6.4
2015-Mar-28 15:33N 51°20' E 003°49'2 2.4
2015-Mar-28 14:33N 51°21' E 003°46'9 9.0
2015-Mar-28 13:33N 51°26' E 003°34'8 8.3
2015-Mar-28 12:33N 51°32' E 003°25'1211.4
2015-Mar-28 11:31N 51°43' E 003°15'6012.0
2015-Mar-28 06:33N 52°27' E 002°10'1313.2
2015-Mar-28 05:33N 52°38' E 001°60'1413.8
2015-Mar-28 04:34N 52°49' E 001°46'1514.8
2015-Mar-28 03:33N 53°00' E 001°29'1515.0
2015-Mar-28 02:33N 53°11' E 001°13'2214.8
2015-Mar-28 01:06N 53°25' E 000°45'814.7
2015-Mar-28 00:33N 53°29' E 000°33'1413.7
2015-Mar-27 23:33N 53°32' E 000°11'1212.1
2015-Mar-27 22:34N 53°38' W 000°08'9 8.6
2015-Mar-27 21:33N 53°44' W 000°16'1 0.5
2015-Mar-27 20:34N 53°45' W 000°15'0 0.0
2015-Mar-27 09:33N 53°45' W 000°15'1 0.7
2015-Mar-27 08:33N 53°44' W 000°17'3 3.0
2015-Mar-27 07:33N 53°42' W 000°14'9 9.1
2015-Mar-27 06:33N 53°37' W 000°01'9 9.5
2015-Mar-27 05:33N 53°33' E 000°14'8 7.7
2015-Mar-27 04:34N 53°35' E 000°26'0 0.1
2015-Mar-27 03:23N 53°35' E 000°26'0 0.0
2015-Mar-27 02:26N 53°35' E 000°26'0 0.1
2015-Mar-27 01:29N 53°35' E 000°26'0 0.0
2015-Mar-27 00:32N 53°35' E 000°26'0 0.0
2015-Mar-26 23:32N 53°35' E 000°26'9 9.0
2015-Mar-26 22:33N 53°43' E 000°19'1515.2
2015-Mar-26 21:33N 53°57' E 000°11'1615.6
2015-Mar-26 20:33N 54°12' E 000°03'1615.6
2015-Mar-26 19:33N 54°27' W 000°05'1515.5
2015-Mar-26 18:33N 54°42' W 000°13'1515.3
2015-Mar-26 17:33N 54°56' W 000°23'1514.7
2015-Mar-26 16:33N 55°08' W 000°39'  
2015-Mar-24 09:32N 55°05' W 000°46'1212.2
2015-Mar-24 08:33N 54°55' W 000°35'1313.6
2015-Mar-24 07:33N 54°44' W 000°22'1413.5
2015-Mar-24 06:33N 54°33' W 000°09'1313.3
2015-Mar-24 05:33N 54°22' E 000°04'1313.5
2015-Mar-24 04:34N 54°11' E 000°17'1514.5
2015-Mar-24 03:32N 53°58' E 000°30'5515.9
2015-Mar-24 00:06N 53°14' E 001°24'914.2
2015-Mar-23 23:27N 53°10' E 001°38'1213.2
2015-Mar-23 22:33N 53°05' E 001°56'9813.4
2015-Mar-23 15:15N 51°41' E 003°18'913.1
2015-Mar-23 14:34N 51°33' E 003°25'1010.2
2015-Mar-23 13:33N 51°26' E 003°37'1010.1
2015-Mar-23 12:33N 51°21' E 003°51'7 7.4
2015-Mar-23 11:33N 51°23' E 004°02'10 9.7
2015-Mar-23 10:34N 51°19' E 004°16'8 7.6
2015-Mar-23 09:33N 51°12' E 004°21'3 2.6
2015-Mar-23 08:27N 51°09' E 004°20'0 0.0
2015-Mar-22 19:33N 51°09' E 004°20'4 3.6
2015-Mar-22 18:33N 51°12' E 004°22'5 4.6
2015-Mar-22 17:34N 51°17' E 004°20'0 0.2
2015-Mar-22 16:34N 51°17' E 004°20'1 1.2
2015-Mar-22 15:33N 51°18' E 004°20'0 0.0
2015-Mar-21 22:10N 51°18' E 004°20'3 4.6
2015-Mar-21 21:34N 51°20' E 004°18'1 0.6
2015-Mar-21 20:33N 51°21' E 004°17'4 4.2
2015-Mar-21 19:34N 51°24' E 004°12'8 7.7
2015-Mar-21 18:34N 51°26' E 004°01'9 8.8
2015-Mar-21 17:33N 51°21' E 003°49'10 9.6
2015-Mar-21 16:33N 51°26' E 003°36'9 9.1
2015-Mar-21 15:33N 51°32' E 003°25'126 9.6
2015-Mar-21 02:28N 53°29' E 004°42'1011.2
2015-Mar-21 01:33N 53°34' E 004°57'1111.4
2015-Mar-21 00:33N 53°38' E 005°15'1110.7
2015-Mar-20 23:33N 53°41' E 005°33'10 9.8
2015-Mar-20 22:33N 53°44' E 005°48'55 9.2
2015-Mar-20 16:33N 53°59' E 007°19'1111.3
2015-Mar-20 15:33N 54°01' E 007°37'1111.4
2015-Mar-20 14:33N 54°01' E 007°57'1712.4
2015-Mar-20 13:10N 53°59' E 008°26'812.7
2015-Mar-20 12:34N 53°57' E 008°38'1110.6
2015-Mar-20 11:34N 53°51' E 008°53'10 9.9
2015-Mar-20 10:33N 53°54' E 009°09'1 0.7
2015-Mar-20 09:33N 53°54' E 009°09'8 7.6
2015-Mar-20 08:33N 54°00' E 009°18'8 7.9
2015-Mar-20 07:30N 54°08' E 009°20'8 8.4
2015-Mar-20 06:33N 54°12' E 009°32'1 0.6
2015-Mar-20 05:26N 54°12' E 009°33'6 4.6
2015-Mar-20 04:08N 54°17' E 009°39'3 5.4
2015-Mar-20 03:30N 54°20' E 009°43'5 5.3
2015-Mar-20 02:34N 54°22' E 009°51'4 4.5
2015-Mar-20 01:34N 54°21' E 009°58'6 5.6
2015-Mar-20 00:33N 54°22' E 010°07'3 3.1
2015-Mar-19 23:33N 54°24' E 010°12'1111.0
2015-Mar-19 22:33N 54°32' E 010°25'1110.8
2015-Mar-19 21:33N 54°35' E 010°43'1111.0
2015-Mar-19 20:33N 54°36' E 011°01'1111.2
2015-Mar-19 19:34N 54°34' E 011°20'1211.6
2015-Mar-19 18:34N 54°29' E 011°38'1110.7
2015-Mar-19 17:33N 54°26' E 011°56'10 9.6
2015-Mar-19 16:33N 54°30' E 012°11'4510.5
2015-Mar-19 12:13N 54°55' E 013°17'710.8
2015-Mar-19 11:33N 54°57' E 013°29'1110.8
2015-Mar-19 10:33N 55°01' E 013°46'1110.8
2015-Mar-19 09:33N 55°04' E 014°04'1010.5
2015-Mar-19 08:33N 55°13' E 014°15'1110.8
2015-Mar-19 07:33N 55°21' E 014°27'1110.6
2015-Mar-19 06:33N 55°29' E 014°40'1110.9
2015-Mar-19 05:33N 55°34' E 014°57'1110.9
2015-Mar-19 04:33N 55°39' E 015°14'1111.1
2015-Mar-19 03:32N 55°45' E 015°31'  
Track history (hours):
 
Tides and Currents Weather Stations Pressure Air Temp Water Temp Dewpoint Dewpoint Depression Visibility Wind Speed Wind Dir Waves Ship Positions

Johann Essberger

Last reported at 2015-Mar-28 17:33 UTC. Time now 2015-Mar-29 04:28 UTC.
Position N 51°09' E 003°47'.

Length 100 m; draft 6.6 m.

Type: Ship (hazmat cat C). MMSI: 255804460.

Date/timePositionNaut miles runAvg speedWind from/ knotsBaromVisibWave heightAir tempDewpointWater temp
2015-Mar-28 17:33N 51°09' E 003°47'5 4.7
2015-Mar-28 16:33N 51°13' E 003°48'6 6.4
2015-Mar-28 15:33N 51°20' E 003°49'2 2.4
2015-Mar-28 14:33N 51°21' E 003°46'9 9.0
2015-Mar-28 13:33N 51°26' E 003°34'8 8.3
2015-Mar-28 12:33N 51°32' E 003°25'1211.4
2015-Mar-28 11:31N 51°43' E 003°15'6012.0
2015-Mar-28 06:33N 52°27' E 002°10'1313.2
2015-Mar-28 05:33N 52°38' E 001°60'1413.8
2015-Mar-28 04:34N 52°49' E 001°46'1514.8
2015-Mar-28 03:33N 53°00' E 001°29'1515.0
2015-Mar-28 02:33N 53°11' E 001°13'2214.8
2015-Mar-28 01:06N 53°25' E 000°45'814.7
2015-Mar-28 00:33N 53°29' E 000°33'1413.7
2015-Mar-27 23:33N 53°32' E 000°11'1212.1
2015-Mar-27 22:34N 53°38' W 000°08'9 8.6
2015-Mar-27 21:33N 53°44' W 000°16'1 0.5
2015-Mar-27 20:34N 53°45' W 000°15'0 0.0
2015-Mar-27 09:33N 53°45' W 000°15'1 0.7
2015-Mar-27 08:33N 53°44' W 000°17'3 3.0
2015-Mar-27 07:33N 53°42' W 000°14'9 9.1
2015-Mar-27 06:33N 53°37' W 000°01'9 9.5
2015-Mar-27 05:33N 53°33' E 000°14'8 7.7
2015-Mar-27 04:34N 53°35' E 000°26'0 0.1
2015-Mar-27 03:23N 53°35' E 000°26'0 0.0
2015-Mar-27 02:26N 53°35' E 000°26'0 0.1
2015-Mar-27 01:29N 53°35' E 000°26'0 0.0
2015-Mar-27 00:32N 53°35' E 000°26'0 0.0
2015-Mar-26 23:32N 53°35' E 000°26'9 9.0
2015-Mar-26 22:33N 53°43' E 000°19'1515.2
2015-Mar-26 21:33N 53°57' E 000°11'1615.6
2015-Mar-26 20:33N 54°12' E 000°03'1615.6
2015-Mar-26 19:33N 54°27' W 000°05'1515.5
2015-Mar-26 18:33N 54°42' W 000°13'1515.3
2015-Mar-26 17:33N 54°56' W 000°23'1514.7
2015-Mar-26 16:33N 55°08' W 000°39'  
2015-Mar-24 09:32N 55°05' W 000°46'1212.2
2015-Mar-24 08:33N 54°55' W 000°35'1313.6
2015-Mar-24 07:33N 54°44' W 000°22'1413.5
2015-Mar-24 06:33N 54°33' W 000°09'1313.3
2015-Mar-24 05:33N 54°22' E 000°04'1313.5
2015-Mar-24 04:34N 54°11' E 000°17'1514.5
2015-Mar-24 03:32N 53°58' E 000°30'5515.9
2015-Mar-24 00:06N 53°14' E 001°24'914.2
2015-Mar-23 23:27N 53°10' E 001°38'1213.2
2015-Mar-23 22:33N 53°05' E 001°56'9813.4
2015-Mar-23 15:15N 51°41' E 003°18'913.1
2015-Mar-23 14:34N 51°33' E 003°25'1010.2
2015-Mar-23 13:33N 51°26' E 003°37'1010.1
2015-Mar-23 12:33N 51°21' E 003°51'7 7.4
2015-Mar-23 11:33N 51°23' E 004°02'10 9.7
2015-Mar-23 10:34N 51°19' E 004°16'8 7.6
2015-Mar-23 09:33N 51°12' E 004°21'3 2.6
2015-Mar-23 08:27N 51°09' E 004°20'0 0.0
2015-Mar-22 19:33N 51°09' E 004°20'4 3.6
2015-Mar-22 18:33N 51°12' E 004°22'5 4.6
2015-Mar-22 17:34N 51°17' E 004°20'0 0.2
2015-Mar-22 16:34N 51°17' E 004°20'1 1.2
2015-Mar-22 15:33N 51°18' E 004°20'0 0.0
2015-Mar-21 22:10N 51°18' E 004°20'3 4.6
2015-Mar-21 21:34N 51°20' E 004°18'1 0.6
2015-Mar-21 20:33N 51°21' E 004°17'4 4.2
2015-Mar-21 19:34N 51°24' E 004°12'8 7.7
2015-Mar-21 18:34N 51°26' E 004°01'9 8.8
2015-Mar-21 17:33N 51°21' E 003°49'10 9.6
2015-Mar-21 16:33N 51°26' E 003°36'9 9.1
2015-Mar-21 15:33N 51°32' E 003°25'126 9.6
2015-Mar-21 02:28N 53°29' E 004°42'1011.2
2015-Mar-21 01:33N 53°34' E 004°57'1111.4
2015-Mar-21 00:33N 53°38' E 005°15'1110.7
2015-Mar-20 23:33N 53°41' E 005°33'10 9.8
2015-Mar-20 22:33N 53°44' E 005°48'55 9.2
2015-Mar-20 16:33N 53°59' E 007°19'1111.3
2015-Mar-20 15:33N 54°01' E 007°37'1111.4
2015-Mar-20 14:33N 54°01' E 007°57'1712.4
2015-Mar-20 13:10N 53°59' E 008°26'812.7
2015-Mar-20 12:34N 53°57' E 008°38'1110.6
2015-Mar-20 11:34N 53°51' E 008°53'10 9.9
2015-Mar-20 10:33N 53°54' E 009°09'1 0.7
2015-Mar-20 09:33N 53°54' E 009°09'8 7.6
2015-Mar-20 08:33N 54°00' E 009°18'8 7.9
2015-Mar-20 07:30N 54°08' E 009°20'8 8.4
2015-Mar-20 06:33N 54°12' E 009°32'1 0.6
2015-Mar-20 05:26N 54°12' E 009°33'6 4.6
2015-Mar-20 04:08N 54°17' E 009°39'3 5.4
2015-Mar-20 03:30N 54°20' E 009°43'5 5.3
2015-Mar-20 02:34N 54°22' E 009°51'4 4.5
2015-Mar-20 01:34N 54°21' E 009°58'6 5.6
2015-Mar-20 00:33N 54°22' E 010°07'3 3.1
2015-Mar-19 23:33N 54°24' E 010°12'1111.0
2015-Mar-19 22:33N 54°32' E 010°25'1110.8
2015-Mar-19 21:33N 54°35' E 010°43'1111.0
2015-Mar-19 20:33N 54°36' E 011°01'1111.2
2015-Mar-19 19:34N 54°34' E 011°20'1211.6
2015-Mar-19 18:34N 54°29' E 011°38'1110.7
2015-Mar-19 17:33N 54°26' E 011°56'10 9.6
2015-Mar-19 16:33N 54°30' E 012°11'4510.5
2015-Mar-19 12:13N 54°55' E 013°17'710.8
2015-Mar-19 11:33N 54°57' E 013°29'1110.8
2015-Mar-19 10:33N 55°01' E 013°46'1110.8
2015-Mar-19 09:33N 55°04' E 014°04'1010.5
2015-Mar-19 08:33N 55°13' E 014°15'1110.8
2015-Mar-19 07:33N 55°21' E 014°27'1110.6
2015-Mar-19 06:33N 55°29' E 014°40'1110.9
2015-Mar-19 05:33N 55°34' E 014°57'1110.9
2015-Mar-19 04:33N 55°39' E 015°14'1111.1
2015-Mar-19 03:32N 55°45' E 015°31'  

Dump ship's entire track history